createdAt,value
2022-12-27T00:02:04.654Z,1.21
2022-12-27T00:04:30.940Z,1.16
2022-12-27T00:07:21.783Z,1.21
2022-12-27T00:09:48.083Z,1.31
2022-12-27T00:12:32.841Z,1.38
2022-12-27T00:15:51.843Z,1.43
2022-12-27T00:18:30.202Z,1.52
2022-12-27T00:21:00.547Z,1.59
2022-12-27T00:23:48.708Z,1.64
2022-12-27T00:26:35.405Z,1.61
2022-12-27T00:32:41.842Z,1.52
2022-12-27T00:35:23.285Z,1.39
2022-12-27T00:37:49.575Z,1.28
2022-12-27T00:40:15.881Z,1.23
2022-12-27T00:42:42.139Z,1.22
2022-12-27T00:45:08.773Z,1.22
2022-12-27T00:47:35.106Z,1.18
2022-12-27T00:50:01.478Z,1.16
2022-12-27T00:52:27.739Z,1.14
2022-12-27T00:54:54.019Z,1.11
2022-12-27T00:57:20.368Z,1.10
2022-12-27T00:59:47.187Z,1.15
2022-12-27T01:02:13.591Z,1.22
2022-12-27T01:04:39.867Z,1.25
2022-12-27T01:07:06.239Z,1.32
2022-12-27T01:09:32.536Z,1.38
2022-12-27T01:11:58.790Z,1.43
2022-12-27T01:14:25.076Z,1.48
2022-12-27T01:16:51.441Z,1.51
2022-12-27T01:19:18.249Z,1.55
2022-12-27T01:21:44.802Z,1.56
2022-12-27T01:24:11.078Z,1.61
2022-12-27T01:26:37.417Z,1.65
2022-12-27T01:29:03.835Z,1.64
2022-12-27T01:31:30.290Z,1.64
2022-12-27T01:33:57.354Z,1.64
2022-12-27T01:36:25.292Z,1.64
2022-12-27T01:38:51.886Z,1.64
2022-12-27T01:41:39.873Z,1.64
2022-12-27T01:44:24.954Z,1.60
2022-12-27T01:46:51.339Z,1.53
2022-12-27T01:49:18.061Z,1.36
2022-12-27T01:51:44.402Z,1.22
2022-12-27T01:54:10.777Z,1.12
2022-12-27T01:56:37.137Z,1.07
2022-12-27T01:59:06.370Z,1.01
2022-12-27T02:01:36.139Z,0.96
2022-12-27T02:04:05.997Z,0.85
2022-12-27T02:06:32.936Z,0.77
2022-12-27T02:09:11.060Z,0.70
2022-12-27T02:11:53.590Z,0.67
2022-12-27T02:14:35.308Z,0.65
2022-12-27T02:17:03.712Z,0.66
2022-12-27T02:19:29.977Z,0.67
2022-12-27T02:22:06.916Z,0.67
2022-12-27T02:24:41.098Z,0.67
2022-12-27T02:27:20.036Z,0.65
2022-12-27T02:29:55.494Z,0.63
2022-12-27T02:32:27.918Z,0.64
2022-12-27T02:34:54.149Z,0.69
2022-12-27T02:37:21.678Z,0.73
2022-12-27T02:39:49.825Z,0.78
2022-12-27T02:42:36.025Z,0.78
2022-12-27T02:45:22.306Z,0.75
2022-12-27T02:48:07.725Z,0.68
2022-12-27T02:51:03.162Z,0.66
2022-12-27T02:53:52.466Z,0.68
2022-12-27T02:56:40.448Z,0.69
2022-12-27T02:59:12.503Z,0.70
2022-12-27T03:02:16.796Z,0.74
2022-12-27T03:04:57.274Z,0.82
2022-12-27T03:07:32.684Z,0.86
2022-12-27T03:10:20.926Z,0.90
2022-12-27T03:13:08.882Z,0.94
2022-12-27T03:15:53.758Z,0.98
2022-12-27T03:18:23.185Z,1.00
2022-12-27T03:21:08.322Z,1.03
2022-12-27T03:23:54.532Z,1.07
2022-12-27T03:26:21.852Z,1.06
2022-12-27T03:29:08.136Z,1.09
2022-12-27T03:31:55.633Z,1.11
2022-12-27T03:34:35.845Z,1.13
2022-12-27T03:37:27.135Z,1.13
2022-12-27T03:39:59.310Z,1.13
2022-12-27T03:42:46.395Z,1.13
2022-12-27T03:45:12.855Z,1.12
2022-12-27T03:47:47.245Z,1.09
2022-12-27T03:50:16.436Z,1.06
2022-12-27T03:52:56.556Z,1.01
2022-12-27T03:55:23.854Z,1.00
2022-12-27T03:57:53.085Z,1.02
2022-12-27T04:00:19.561Z,1.06
2022-12-27T04:02:46.063Z,1.07
2022-12-27T04:05:12.462Z,1.10
2022-12-27T04:07:38.748Z,1.13
2022-12-27T04:10:24.165Z,1.16
2022-12-27T04:13:09.053Z,1.18
2022-12-27T04:15:54.082Z,1.21
2022-12-27T04:18:38.832Z,1.25
2022-12-27T04:21:23.781Z,1.23
2022-12-27T04:24:08.579Z,1.11
2022-12-27T04:26:53.427Z,1.00
2022-12-27T04:29:38.214Z,0.98
2022-12-27T04:32:22.983Z,0.92
2022-12-27T04:34:49.280Z,0.93
2022-12-27T04:37:17.210Z,0.93
2022-12-27T04:40:03.144Z,0.94
2022-12-27T04:42:47.967Z,0.93
2022-12-27T04:45:32.753Z,0.96
2022-12-27T04:48:17.506Z,0.93
2022-12-27T04:51:02.407Z,0.90
2022-12-27T04:53:48.212Z,0.86
2022-12-27T04:56:14.492Z,0.85
2022-12-27T04:59:00.752Z,0.86
2022-12-27T05:01:45.993Z,0.87
2022-12-27T05:04:12.446Z,0.89
2022-12-27T05:06:38.710Z,0.92
2022-12-27T05:09:23.699Z,0.94
2022-12-27T05:12:08.584Z,0.99
2022-12-27T05:14:34.872Z,1.01
2022-12-27T05:17:01.197Z,1.05
2022-12-27T05:19:28.590Z,1.09
2022-12-27T05:22:13.460Z,1.08
2022-12-27T05:24:58.119Z,0.99
2022-12-27T05:27:24.377Z,0.84
2022-12-27T05:29:50.757Z,0.82
2022-12-27T05:32:17.022Z,0.79
2022-12-27T05:34:43.352Z,0.80
2022-12-27T05:37:09.679Z,0.76
2022-12-27T05:39:35.930Z,0.72
2022-12-27T05:42:03.111Z,0.73
2022-12-27T05:44:29.374Z,0.66
2022-12-27T05:46:55.743Z,0.57
2022-12-27T05:49:22.187Z,0.47
2022-12-27T05:51:48.475Z,0.39
2022-12-27T05:54:14.744Z,0.33
2022-12-27T05:56:41.731Z,0.30
2022-12-27T05:59:08.104Z,0.28
2022-12-27T06:01:36.146Z,0.28
2022-12-27T06:04:02.584Z,0.25
2022-12-27T06:06:28.894Z,0.25
2022-12-27T06:08:55.233Z,0.21
2022-12-27T06:11:21.522Z,0.16
2022-12-27T06:13:52.004Z,0.11
2022-12-27T06:16:19.653Z,0.06
2022-12-27T06:18:46.071Z,0.10
2022-12-27T06:21:14.023Z,0.12
2022-12-27T06:23:41.729Z,0.11
2022-12-27T06:26:18.630Z,0.11
2022-12-27T06:28:45.007Z,0.13
2022-12-27T06:31:11.714Z,0.14
2022-12-27T06:33:38.055Z,0.16
2022-12-27T06:36:08.424Z,0.18
2022-12-27T06:38:34.815Z,0.18
2022-12-27T06:41:01.866Z,0.16
2022-12-27T06:43:28.141Z,0.15
2022-12-27T06:45:58.147Z,0.17
2022-12-27T06:48:24.563Z,0.19
2022-12-27T06:50:50.879Z,0.22
2022-12-27T06:53:17.172Z,0.18
2022-12-27T06:55:43.501Z,0.17
2022-12-27T06:58:09.858Z,0.18
2022-12-27T07:00:36.249Z,0.17
2022-12-27T07:03:03.746Z,0.19
2022-12-27T07:05:30.186Z,0.20
2022-12-27T07:07:56.502Z,0.22
2022-12-27T07:10:23.103Z,0.17
2022-12-27T07:12:49.418Z,0.15
2022-12-27T07:15:15.793Z,0.14
2022-12-27T07:17:42.046Z,0.16
2022-12-27T07:20:08.638Z,0.12
2022-12-27T07:22:34.973Z,0.10
2022-12-27T07:25:01.240Z,0.07
2022-12-27T07:27:27.517Z,0.08
2022-12-27T07:29:53.799Z,0.10
2022-12-27T07:32:20.082Z,0.10
2022-12-27T07:34:46.403Z,0.10
2022-12-27T07:37:12.758Z,0.12
2022-12-27T07:39:39.047Z,0.18
2022-12-27T07:42:08.364Z,0.23
2022-12-27T07:44:35.123Z,0.27
2022-12-27T07:47:01.464Z,0.29
2022-12-27T07:49:28.225Z,0.38
2022-12-27T07:51:54.502Z,0.44
2022-12-27T07:54:20.797Z,0.45
2022-12-27T07:56:47.074Z,0.42
2022-12-27T07:59:13.874Z,0.39
2022-12-27T08:01:58.747Z,0.38
2022-12-27T08:04:25.162Z,0.36
2022-12-27T08:06:51.528Z,0.37
2022-12-27T08:09:23.604Z,0.40
2022-12-27T08:11:49.932Z,0.40
2022-12-27T08:14:16.195Z,0.45
2022-12-27T08:16:42.471Z,0.49
2022-12-27T08:19:08.879Z,0.50
2022-12-27T08:21:35.189Z,0.54
2022-12-27T08:24:01.438Z,0.56
2022-12-27T08:26:27.724Z,0.60
2022-12-27T08:28:53.980Z,0.60
2022-12-27T08:31:20.296Z,0.62
2022-12-27T08:33:46.727Z,0.67
2022-12-27T08:36:45.048Z,0.71
2022-12-27T08:38:59.372Z,0.73
2022-12-27T08:41:25.732Z,0.74
2022-12-27T08:43:52.263Z,0.76
2022-12-27T08:46:19.505Z,0.75
2022-12-27T08:48:49.382Z,0.75
2022-12-27T08:51:24.834Z,0.75
2022-12-27T08:53:57.925Z,0.79
2022-12-27T08:56:24.655Z,0.85
2022-12-27T08:58:50.959Z,0.99
2022-12-27T09:01:17.434Z,1.16
2022-12-27T09:03:43.802Z,1.29
2022-12-27T09:06:11.148Z,1.34
2022-12-27T09:08:37.805Z,1.32
2022-12-27T09:11:08.371Z,1.27
2022-12-27T09:13:34.717Z,1.24
2022-12-27T09:16:05.133Z,1.23
2022-12-27T09:18:31.484Z,1.19
2022-12-27T09:21:02.614Z,1.14
2022-12-27T09:23:29.698Z,1.09
2022-12-27T09:25:55.957Z,1.07
2022-12-27T09:28:22.223Z,1.04
2022-12-27T09:30:48.577Z,1.01
2022-12-27T09:33:15.014Z,1.07
2022-12-27T09:35:41.276Z,1.14
2022-12-27T09:38:07.661Z,1.23
2022-12-27T09:40:34.097Z,1.32
2022-12-27T09:43:20.673Z,1.47
2022-12-27T09:45:51.617Z,1.61
2022-12-27T09:48:31.103Z,1.69
2022-12-27T09:51:00.831Z,1.75
2022-12-27T09:53:47.423Z,1.80
2022-12-27T09:56:18.955Z,1.74
2022-12-27T09:58:49.386Z,1.69
2022-12-27T10:01:27.649Z,1.63
2022-12-27T10:03:54.308Z,1.51
2022-12-27T10:06:20.563Z,1.42
2022-12-27T10:08:53.295Z,1.36
2022-12-27T10:11:36.842Z,1.34
2022-12-27T10:14:23.380Z,1.33
2022-12-27T10:16:52.790Z,1.35
2022-12-27T10:19:24.518Z,1.39
2022-12-27T10:22:13.890Z,1.41
2022-12-27T10:24:44.071Z,1.42
2022-12-27T10:27:15.265Z,1.45
2022-12-27T10:29:42.798Z,1.51
2022-12-27T10:32:11.345Z,1.53
2022-12-27T10:34:37.653Z,1.54
2022-12-27T10:37:03.945Z,1.57
2022-12-27T10:39:32.097Z,1.61
2022-12-27T10:42:07.902Z,1.67
2022-12-27T10:44:34.324Z,1.67
2022-12-27T10:47:00.970Z,1.71
2022-12-27T10:49:28.995Z,1.72
2022-12-27T10:52:06.636Z,1.75
2022-12-27T10:54:33.050Z,1.82
2022-12-27T10:57:18.259Z,1.83
2022-12-27T10:59:44.619Z,1.86
2022-12-27T11:02:20.067Z,1.87
2022-12-27T11:04:59.553Z,1.89
2022-12-27T11:07:33.513Z,1.95
2022-12-27T11:10:07.580Z,2.00
2022-12-27T11:12:36.078Z,2.15
2022-12-27T11:15:15.725Z,2.25
2022-12-27T11:17:42.082Z,2.29
2022-12-27T11:20:12.428Z,2.36
2022-12-27T11:23:00.407Z,2.30
2022-12-27T11:25:27.785Z,2.46
2022-12-27T11:28:00.694Z,2.33
2022-12-27T11:30:30.543Z,2.23
2022-12-27T11:32:59.432Z,2.20
2022-12-27T11:35:25.840Z,2.36
2022-12-27T11:37:52.440Z,2.31
2022-12-27T11:40:22.303Z,2.19
2022-12-27T11:42:51.137Z,2.17
2022-12-27T11:45:22.950Z,2.18
2022-12-27T11:48:08.059Z,2.07
2022-12-27T11:50:42.882Z,2.01
2022-12-27T11:53:09.143Z,1.98
2022-12-27T11:55:52.766Z,1.89
2022-12-27T11:58:34.310Z,1.76
2022-12-27T12:01:12.907Z,1.68
2022-12-27T12:03:45.090Z,1.67
2022-12-27T12:06:22.306Z,1.74
2022-12-27T12:08:57.383Z,1.73
2022-12-27T12:11:34.067Z,1.69
2022-12-27T12:14:09.116Z,1.68
2022-12-27T12:16:43.691Z,1.66
2022-12-27T12:19:21.674Z,1.72
2022-12-27T12:21:48.532Z,1.83
2022-12-27T12:24:33.796Z,1.84
2022-12-27T12:27:03.043Z,1.90
2022-12-27T12:29:32.307Z,1.95
2022-12-27T12:32:05.206Z,1.99
2022-12-27T12:34:59.282Z,2.06
2022-12-27T12:37:44.191Z,2.14
2022-12-27T12:40:21.025Z,2.24
2022-12-27T12:43:01.517Z,2.31
2022-12-27T12:45:43.702Z,2.34
2022-12-27T12:48:15.743Z,2.33
2022-12-27T12:50:45.226Z,2.36
2022-12-27T12:53:20.417Z,2.37
2022-12-27T12:55:46.708Z,2.36
2022-12-27T12:58:24.285Z,2.37
2022-12-27T13:01:03.852Z,2.37
2022-12-27T13:03:32.968Z,2.35
2022-12-27T13:06:18.203Z,2.46
2022-12-27T13:08:53.567Z,2.64
2022-12-27T13:11:58.592Z,2.85
2022-12-27T13:14:27.805Z,2.81
2022-12-27T13:17:12.768Z,2.80
2022-12-27T13:19:51.058Z,2.76
2022-12-27T13:22:31.888Z,2.64
2022-12-27T13:24:58.118Z,2.54
2022-12-27T13:27:32.307Z,2.43
2022-12-27T13:30:07.368Z,2.33
2022-12-27T13:32:48.689Z,2.21
2022-12-27T13:35:28.176Z,2.10
2022-12-27T13:38:17.726Z,1.98
2022-12-27T13:41:04.762Z,1.90
2022-12-27T13:43:54.286Z,1.93
2022-12-27T13:46:42.482Z,1.93
2022-12-27T13:49:26.937Z,1.89
2022-12-27T13:51:57.100Z,1.86
2022-12-27T13:54:42.000Z,1.85
2022-12-27T13:57:21.700Z,1.84
2022-12-27T13:59:52.868Z,1.80
2022-12-27T14:02:37.473Z,1.82
2022-12-27T14:05:30.387Z,1.83
2022-12-27T14:08:10.316Z,1.79
2022-12-27T14:10:40.474Z,1.76
2022-12-27T14:13:07.988Z,1.77
2022-12-27T14:15:58.803Z,1.77
2022-12-27T14:18:32.169Z,1.76
2022-12-27T14:21:05.874Z,1.74
2022-12-27T14:23:32.117Z,1.72
2022-12-27T14:26:01.509Z,1.73
2022-12-27T14:28:33.840Z,1.75
2022-12-27T14:31:03.134Z,1.76
2022-12-27T14:33:55.333Z,1.82
2022-12-27T14:36:27.782Z,1.84
2022-12-27T14:39:06.488Z,1.89
2022-12-27T14:41:51.619Z,1.90
2022-12-27T14:44:17.908Z,1.90
2022-12-27T14:47:03.159Z,1.84
2022-12-27T14:49:32.444Z,1.76
2022-12-27T14:52:14.085Z,1.69
2022-12-27T14:55:08.375Z,1.65
2022-12-27T14:57:47.331Z,1.62
2022-12-27T15:00:15.472Z,1.60
2022-12-27T15:02:53.915Z,1.58
2022-12-27T15:05:39.153Z,1.73
2022-12-27T15:08:20.582Z,1.84
2022-12-27T15:10:57.597Z,1.89
2022-12-27T15:13:56.356Z,1.93
2022-12-27T15:16:22.633Z,1.92
2022-12-27T15:18:57.279Z,1.94
2022-12-27T15:21:33.651Z,1.90
2022-12-27T15:24:05.775Z,1.87
2022-12-27T15:26:52.494Z,1.84
2022-12-27T15:29:31.077Z,1.79
2022-12-27T15:32:03.471Z,1.79
2022-12-27T15:34:51.326Z,1.78
2022-12-27T15:37:36.347Z,1.75
2022-12-27T15:40:21.185Z,1.74
2022-12-27T15:43:01.744Z,1.72
2022-12-27T15:48:51.565Z,1.63
2022-12-27T15:51:41.630Z,1.61
2022-12-27T15:54:19.688Z,1.61
2022-12-27T15:57:03.007Z,1.57
2022-12-27T15:59:35.361Z,1.57
2022-12-27T16:02:17.018Z,1.57
2022-12-27T16:04:48.384Z,1.51
2022-12-27T16:07:34.486Z,1.48
2022-12-27T16:10:20.749Z,1.41
2022-12-27T16:12:48.368Z,1.38
2022-12-27T16:15:32.745Z,1.36
2022-12-27T16:17:59.107Z,1.27
2022-12-27T16:20:25.444Z,1.22
2022-12-27T16:22:51.689Z,1.16
2022-12-27T16:25:30.163Z,1.13
2022-12-27T16:27:59.644Z,1.11
2022-12-27T16:30:38.131Z,1.09
2022-12-27T16:33:05.016Z,1.06
2022-12-27T16:35:32.384Z,1.03
2022-12-27T16:38:03.663Z,1.02
2022-12-27T16:40:38.036Z,1.01
2022-12-27T16:43:10.393Z,1.03
2022-12-27T16:45:39.708Z,1.09
2022-12-27T16:48:25.246Z,1.14
2022-12-27T16:51:04.878Z,1.19
2022-12-27T16:53:40.132Z,1.28
2022-12-27T16:56:06.584Z,1.29
2022-12-27T16:58:34.590Z,1.26
2022-12-27T17:01:02.852Z,1.21
2022-12-27T17:03:31.635Z,1.14
2022-12-27T17:06:30.659Z,1.10
2022-12-27T17:08:46.153Z,1.07
2022-12-27T17:11:25.774Z,1.03
2022-12-27T17:14:11.159Z,1.00
2022-12-27T17:16:41.917Z,0.96
2022-12-27T17:19:15.614Z,0.94
2022-12-27T17:21:44.463Z,0.93
2022-12-27T17:24:15.148Z,0.90
2022-12-27T17:26:56.528Z,0.86
2022-12-27T17:29:41.547Z,0.84
2022-12-27T17:32:16.923Z,0.86
2022-12-27T17:35:02.158Z,0.87
2022-12-27T17:37:46.790Z,0.86
2022-12-27T17:40:31.230Z,0.87
2022-12-27T17:43:22.205Z,0.90
2022-12-27T17:45:55.918Z,0.94
2022-12-27T17:48:25.382Z,0.94
2022-12-27T17:50:54.592Z,0.98
2022-12-27T17:53:41.046Z,1.00
2022-12-27T17:56:29.102Z,1.06
2022-12-27T17:59:06.844Z,1.12
2022-12-27T18:04:07.835Z,1.29
2022-12-27T18:06:35.876Z,1.36
2022-12-27T18:09:02.502Z,1.39
2022-12-27T18:11:31.957Z,1.41
2022-12-27T18:14:00.409Z,1.43
2022-12-27T18:16:38.356Z,1.45
2022-12-27T18:19:04.966Z,1.40
2022-12-27T18:21:32.023Z,1.32
2022-12-27T18:23:58.443Z,1.24
2022-12-27T18:26:35.644Z,1.19
2022-12-27T18:29:02.010Z,1.20
2022-12-27T18:31:28.454Z,1.25
2022-12-27T18:33:57.722Z,1.28
2022-12-27T18:36:27.145Z,1.24
2022-12-27T18:38:57.293Z,1.21
2022-12-27T18:41:24.024Z,1.21
2022-12-27T18:43:53.823Z,1.21
2022-12-27T18:46:25.362Z,1.24
2022-12-27T18:48:52.752Z,1.27
2022-12-27T18:51:19.209Z,1.29
2022-12-27T18:53:45.763Z,1.35
2022-12-27T18:56:15.623Z,1.38
2022-12-27T18:59:03.930Z,1.42
2022-12-27T19:01:36.811Z,1.43
2022-12-27T19:04:17.038Z,1.39
2022-12-27T19:06:55.650Z,1.35
2022-12-27T19:09:23.774Z,1.38
2022-12-27T19:11:58.741Z,1.42
2022-12-27T19:14:26.103Z,1.45
2022-12-27T19:16:59.278Z,1.49
2022-12-27T19:19:27.773Z,1.53
2022-12-27T19:21:54.312Z,1.55
2022-12-27T19:24:23.607Z,1.57
2022-12-27T19:26:50.771Z,1.62
2022-12-27T19:29:18.275Z,1.60
2022-12-27T19:32:03.420Z,1.59
2022-12-27T19:34:31.404Z,1.60
2022-12-27T19:36:57.879Z,1.60
2022-12-27T19:39:29.007Z,1.66
2022-12-27T19:42:00.431Z,1.66
2022-12-27T19:44:27.582Z,1.71
2022-12-27T19:46:53.869Z,1.72
2022-12-27T19:52:09.531Z,1.75
2022-12-27T19:54:35.834Z,1.78
2022-12-27T19:57:02.128Z,1.82
2022-12-27T19:59:28.398Z,1.83
2022-12-27T20:01:54.977Z,1.88
2022-12-27T20:04:21.407Z,1.91
2022-12-27T20:06:48.698Z,1.94
2022-12-27T20:09:16.749Z,1.95
2022-12-27T20:11:43.090Z,1.96
2022-12-27T20:14:09.603Z,1.97
2022-12-27T20:16:35.927Z,1.98
2022-12-27T20:19:02.794Z,1.98
2022-12-27T20:21:29.279Z,1.98
2022-12-27T20:23:55.579Z,2.00
2022-12-27T20:26:24.016Z,2.01
2022-12-27T20:28:51.316Z,2.03
2022-12-27T20:31:19.313Z,2.08
2022-12-27T20:33:45.933Z,2.14
2022-12-27T20:36:12.315Z,2.17
2022-12-27T20:38:39.183Z,2.22
2022-12-27T20:41:09.834Z,2.26
2022-12-27T20:43:36.414Z,2.28
2022-12-27T20:46:13.951Z,2.33
2022-12-27T20:48:40.994Z,2.34
2022-12-27T20:51:09.067Z,2.35
2022-12-27T20:53:35.737Z,2.35
2022-12-27T20:56:02.690Z,2.34
2022-12-27T20:58:30.000Z,2.36
2022-12-27T21:00:56.360Z,2.33
2022-12-27T21:03:22.799Z,2.29
2022-12-27T21:05:49.234Z,2.27
2022-12-27T21:08:15.511Z,2.25
2022-12-27T21:10:41.872Z,2.23
2022-12-27T21:13:08.216Z,2.25
2022-12-27T21:15:40.444Z,2.26
2022-12-27T21:18:08.769Z,2.27
2022-12-27T21:20:35.047Z,2.26
2022-12-27T21:23:01.432Z,2.26
2022-12-27T21:25:27.701Z,2.25
2022-12-27T21:27:53.956Z,2.24
2022-12-27T21:30:20.295Z,2.26
2022-12-27T21:32:47.645Z,2.26
2022-12-27T21:35:13.997Z,2.29
2022-12-27T21:37:40.242Z,2.31
2022-12-27T21:40:06.873Z,2.32
2022-12-27T21:42:33.185Z,2.34
2022-12-27T21:44:59.547Z,2.34
2022-12-27T21:47:26.586Z,2.36
2022-12-27T21:49:52.866Z,2.38
2022-12-27T21:52:20.667Z,2.39
2022-12-27T21:54:47.601Z,2.41
2022-12-27T21:57:13.923Z,2.44
2022-12-27T21:59:40.263Z,2.45
2022-12-27T22:05:00.198Z,2.51
2022-12-27T22:07:26.499Z,2.53
2022-12-27T22:09:52.824Z,2.55
2022-12-27T22:12:19.082Z,2.58
2022-12-27T22:14:45.442Z,2.60
2022-12-27T22:17:11.763Z,2.61
2022-12-27T22:19:38.032Z,2.63
2022-12-27T22:22:04.397Z,2.70
2022-12-27T22:24:30.683Z,2.76
2022-12-27T22:26:57.516Z,2.80
2022-12-27T22:29:24.673Z,2.82
2022-12-27T22:31:50.948Z,2.85
2022-12-27T22:34:17.238Z,2.88
2022-12-27T22:36:43.526Z,2.89
2022-12-27T22:39:09.902Z,2.90
2022-12-27T22:41:36.553Z,2.92
2022-12-27T22:44:04.710Z,2.91
2022-12-27T22:46:58.668Z,2.92
2022-12-27T22:49:18.488Z,2.94
2022-12-27T22:51:44.805Z,2.95
2022-12-27T22:54:11.272Z,2.98
2022-12-27T22:56:41.993Z,2.96
2022-12-27T22:59:09.178Z,2.98
2022-12-27T23:01:35.994Z,2.97
2022-12-27T23:04:03.926Z,2.98
2022-12-27T23:06:31.223Z,2.98
2022-12-27T23:08:57.552Z,3.00
2022-12-27T23:11:28.608Z,2.99
2022-12-27T23:13:56.185Z,3.01
2022-12-27T23:16:22.905Z,2.99
2022-12-27T23:18:49.201Z,3.03
2022-12-27T23:21:20.709Z,3.03
2022-12-27T23:23:50.372Z,3.07
2022-12-27T23:26:17.891Z,3.09
2022-12-27T23:28:45.026Z,3.12
2022-12-27T23:31:11.951Z,3.14
2022-12-27T23:33:38.957Z,3.15
2022-12-27T23:36:05.397Z,3.16
2022-12-27T23:38:31.749Z,3.16
2022-12-27T23:40:59.311Z,3.18
2022-12-27T23:46:17.015Z,3.18
2022-12-27T23:48:43.594Z,3.18
2022-12-27T23:51:10.446Z,3.19
2022-12-27T23:53:37.101Z,3.19
2022-12-27T23:56:13.745Z,3.18
2022-12-27T23:58:40.342Z,3.16
